Watersound, Florida
Current Conditions -  °F | °C
As of 5:53 PM on Sunday 25 Jan 2015 (Local Time) from KECP Reporting Station
Few Clouds Few Clouds  
Wind Chill: 61°   Ceiling: Unl
Heat Index: 61°   Visibility: 10mi
Dew Point: 51°   Wind: 15mph
Humidity: 70%   Direction: 220°SW
Pressure: 29.87"   Gusts: NA
Location:  30.2534°N, 85.9486°W
Report Text: KECP 252353Z 22013KT 10SM FEW037 16/11 A2987 RMK AO2 SLP125 T01610106 10172 20150 56013 $
Loading
Personal Weather Stations






























Interactive Weather Map New forecast layout! Learn more

10-Day Weather Forecast

Advertisements
Track Severe Weather on mobile